Caliente, Nevada Weather observations

Data are for observation ending at time listed.
 Day   Time    Ave.   Ave.  Ave.  Vector   Max.   Stn.    Total    Solar   Ave.  
  of    of     Air    Rel.  Wind   Wind    Wind   Baro.  Precip.   Rad.    Soil  
Year   Day     Temp.  Hum.  Speed  Dir.    Gust   Pres.                    Temp. 
2015   (PST)    F      %     mph   deg.    mph     mb.     in.     W/m2     F   
------------------------------------------------------------------------------
 208   19:30   78.3    18    0.4   190      1.8   864.4    0.00       0    96.1
 208   19:40   77.6    19    0.5    73      2.3   864.5    0.00       0    95.8
 208   19:50   76.1    20    0.4   145      2.3   864.6    0.00       0    95.4
 208   20:00   76.0    21    0.2   265      1.3   864.8    0.00       0    94.9
 208   20:10   74.9    21    0.5   185      1.9   864.9    0.00       0    94.6
 208   20:20   74.1    22    0.5   276      1.7   865.0    0.00       0    94.2
 208   20:30   73.4    22    1.3   336      3.0   865.2    0.00       0    93.8
 208   20:40   72.8    22    0.8   168      2.2   865.4    0.00       0    93.4
 208   20:50   72.1    18    1.2   158      2.9   865.5    0.00       0    93.1
 208   21:00   72.0    18    1.5   184      2.7   865.6    0.00       0    92.7
 208   21:10   72.1    16    0.4   154      1.7   865.7    0.00       0    92.3
 208   21:20   72.0    19    1.1   356      2.6   865.7    0.00       0    92.0
 208   21:30   71.0    20    1.8   108      3.3   865.9    0.00       0    91.7
 208   21:40   71.6    17    2.0   103      3.5   865.9    0.00       0    91.4
 208   21:50   72.6    16    1.0    93      3.7   866.0    0.00       0    91.1
 208   22:00   71.7    18    0.1   188      0.9   866.1    0.00       1    90.7
 208   22:10   70.2    21    0.7   104      3.0   866.2    0.00       1    90.4
 208   22:20   69.2    22    2.0    46      8.8   866.4    0.00       1    90.2
 208   22:30   70.1    19    2.2    56      7.5   866.6    0.00       1    89.9
 208   22:40   69.8    20    2.5   111      4.0   866.7    0.00       1    89.6
 208   22:50   71.9    17    2.6    92      6.5   866.7    0.00       1    89.3
 208   23:00   73.7    16    2.1    98      7.5   866.7    0.00       1    89.0
 208   23:10   74.1    17    2.3    76      6.8   866.8    0.00       0    88.7
 208   23:20   74.2    16    6.4   104     13.4   866.9    0.00       1    88.5
 208   23:30   73.5    16    6.0   112     11.0   867.1    0.00       1    88.2
 208   23:40   73.0    17    4.8   108     10.2   867.3    0.00       0    88.0
 208   23:50   72.6    17    3.1   101      8.3   867.4    0.00       0    87.8
 209    0:00   72.0    19    3.2   101      6.9   867.5    0.00       0    87.5
 209    0:10   71.3    20    2.9   108      5.1   867.7    0.00       0    87.3
 209    0:20   70.8    21    2.3   111      7.4   867.8    0.00       0    87.1
 209    0:30   71.2    22    1.1   111      4.0   867.8    0.00       1    86.8
 209    0:40   70.2    23    0.5   160      2.3   867.9    0.00       0    86.6
 209    0:50   69.6    24    1.7   277      6.4   868.0    0.00       1    86.4
 209    1:00   69.0    25    0.3   278      1.6   868.0    0.00       0    86.2
 209    1:10   67.7    27    0.5   250      2.3   868.2    0.00       1    86.0
 209    1:20   66.5    28    0.8   155      2.4   868.2    0.00       1    85.8
 209    1:30   66.4    28    0.8    43      3.9   868.2    0.00       1    85.6
 209    1:40   66.6    28    0.6   323      3.0   868.3    0.00       1    85.4
 209    1:50   66.3    29    0.6    18      2.4   868.4    0.00       1    85.2
 209    2:00   66.0    29    0.8   342      3.1   868.4    0.00       1    85.0
 209    2:10   66.1    28    0.6    22      3.5   868.4    0.00       1    84.8
 209    2:20   66.0    28    2.2    13      4.5   868.5    0.00       1    84.6
 209    2:30   66.0    28    3.1    11      7.9   868.6    0.00       1    84.4
 209    2:40   65.4    29    1.5    10      3.9   868.7    0.00       1    84.3
 209    2:50   64.8    30    0.8    99      3.0   868.8    0.00       1    84.1
 209    3:00   64.7    30    1.3    87      3.8   868.8    0.00       1    83.8
 209    3:10   64.5    31    1.7   104      3.4   868.9    0.00       1    83.6
 209    3:20   63.7    34    2.9   115      5.9   869.0    0.00       1    83.4
 209    3:30   64.7    31    2.4   102      5.5   869.1    0.00       1    83.2
 209    3:40   64.1    32    0.9    78      3.4   869.2    0.00       1    83.0
 209    3:50   63.9    30    2.4   356      5.6   869.3    0.00       0    82.8
 209    4:00   63.5    30    2.7     2      5.3   869.4    0.00       0    82.6
 209    4:10   63.1    31    2.9    17      6.9   869.5    0.00       1    82.5
 209    4:20   62.9    31    2.9   338      8.8   869.7    0.00       1    82.3
 209    4:30   62.4    31    2.3   339      5.3   869.8    0.00       3    82.1
 209    4:40   62.1    31    2.9   355      6.4   869.9    0.00       3    81.9
 209    4:50   62.0    31    3.3     0      5.7   870.1    0.00       3    81.7
 209    5:00   61.7    31    3.1   336      5.6   870.2    0.00       9    81.5
 209    5:10   61.4    32    2.5   348      6.1   870.3    0.00       9    81.3
 209    5:20   61.2    32    2.2   334      6.5   870.3    0.00      14    81.1
 209    5:30   61.2    31    3.3   336      6.9   870.4    0.00      20    80.9
 209    5:40   61.9    30    3.4   351      9.8   870.5    0.00      24    80.7
 209    5:50   61.9    30    3.4   344      6.6   870.5    0.00      26    80.5
 209    6:00   62.5    29    3.1   352      7.3   870.6    0.00      26    80.4
 209    6:10   63.4    28    3.5   354      8.8   870.6    0.00      30    80.2
 209    6:20   64.3    26    4.5    24     10.2   870.7    0.00      45    80.0
 209    6:30   66.4    23    4.3    74     12.4   870.8    0.00      63    79.9
 209    6:40   67.0    22    4.1    79     11.8   870.8    0.00     251    79.8
 209    6:50   67.6    22    4.5    82     10.8   870.8    0.00     286    79.7
 209    7:00   68.2    22    4.5    78     12.3   870.8    0.00     314    79.6
 209    7:10   68.6    22    4.6    86     14.2   870.9    0.00     341    79.5
 209    7:20   69.7    21    3.5    83      9.6   870.9    0.00     368    79.4
 209    7:30   70.8    20    5.4    64     13.7   871.0    0.00     393    79.3
 209    7:40   71.6    20    5.5    56     13.4   871.0    0.00     419    79.2
 209    7:50   72.2    20    4.3    54     10.9   871.0    0.00     443    79.1
 209    8:00   73.1    19    3.9    43      9.0   870.9    0.00     467    79.1
 209    8:10   73.6    19    3.7    78      9.8   870.8    0.00     492    79.1
 209    8:20   73.5    20    3.2    80      8.0   870.7    0.00     515    79.1
 209    8:30   74.2    19    4.3    86     10.0   870.6    0.00     538    79.2
 209    8:40   75.3    19    3.7    32      7.5   870.5    0.00     559    79.3
 209    8:50   75.6    18    3.7   355     12.0   870.5    0.00     580    79.5
 209    9:00   76.7    18    3.0     8      8.2   870.4    0.00     599    79.6
 209    9:10   78.2    18    4.3    70     12.6   870.3    0.00     618    79.8
 209    9:20   78.5    18    4.5    94     16.6   870.3    0.00     635    79.9
 209    9:30   78.4    18    4.3    92     11.9   870.2    0.00     635    80.0
 209    9:40   78.5    18    7.5   104     14.4   870.1    0.00     602    80.2
 209    9:50   78.7    18    5.5   110     13.2   870.1    0.00     604    80.4
 209   10:00   80.1    17    4.2   106     14.2   870.0    0.00     656    80.5
 209   10:10   79.5    17    6.2   103     17.0   869.9    0.00     619    80.6
 209   10:20   80.6    16    4.7    92     11.8   869.9    0.00     705    80.8
 209   10:30   80.9    16    4.7   100     12.0   869.8    0.00     735    80.9
 209   10:40   82.0    16    3.8   102      9.9   869.8    0.00     744    81.0
 209   10:50   82.6    15    3.7    61      8.3   869.8    0.00     751    81.1
 209   11:00   83.5    14    4.8    28     11.0   869.8    0.00     761    81.2
 209   11:10   84.3    14    3.0   351      7.2   869.7    0.00     764    81.3
 209   11:20   84.8    14    1.9    92      6.4   869.6    0.00     767    81.4
 209   11:30   85.4    14    1.6    87      5.9   869.5    0.00     770    81.6
 209   11:40   85.9    13    3.0    62      7.4   869.4    0.00     770    81.8
 209   11:50   85.3    14    1.8   100      6.9   869.3    0.00     772    82.0
 209   12:00   86.1    14    1.9   110      6.8   869.1    0.00     772    82.3
 209   12:10   87.0    13    2.8    43      7.6   869.1    0.00     769    82.7
 209   12:20   87.0    13    3.2    74      7.0   869.0    0.00     768    83.0
 209   12:30   87.2    13    4.2    84     12.1   868.9    0.00     766    83.4
 209   12:40   86.6    12    3.3    17      8.2   868.7    0.00     762    83.8
 209   12:50   87.8    12    2.7    60      6.6   868.6    0.00     756    84.5
 209   13:00   87.3    12    4.5   102     10.5   868.4    0.00     746    85.2
 209   13:10   87.5    12    2.9    83     11.5   868.4    0.00     737    86.0
 209   13:20   88.0    12    4.8    80     14.9   868.2    0.00     727    86.9
 209   13:30   89.0    11    3.3    37     12.7   868.2    0.00     714    87.8
 209   13:40   89.1    11    3.4   286      8.0   868.1    0.00     703    88.7
 209   13:50   89.6    11    5.9   281     10.1   867.9    0.00     690    89.7
 209   14:00   89.8    11    4.3   278      8.8   867.8    0.00     676    90.5
 209   14:10   91.1    11    3.3   304      9.9   867.7    0.00     658    91.4
 209   14:20   91.7    11    3.8     1      8.3   867.6    0.00     640    92.3
 209   14:30   91.2    11    4.2   266      9.9   867.5    0.00     623    93.1
 209   14:40   90.2    11    4.1    22      9.6   867.3    0.00     605    93.9
 209   14:50   90.6    11    3.6    58      9.6   867.2    0.00     584    94.6
 209   15:00   90.4    11    2.5   336      8.4   867.1    0.00     564    95.3
 209   15:10   92.2    10    1.5   332      6.1   866.9    0.00     540    95.9
 209   15:20   91.9    11    2.7    16      8.3   866.8    0.00     518    96.5
 209   15:30   91.9    10    1.4   305      6.9   866.8    0.00     497    97.1
 209   15:40   91.8    10    1.8   315      6.6   866.7    0.00     474    97.6
 209   15:50   91.9    10    3.7   301      9.9   866.6    0.00     449    98.0
 209   16:00   91.7    10    3.6   284      8.0   866.5    0.00     423    98.4
 209   16:10   91.8    10    2.2   329      7.6   866.5    0.00     398    98.8
 209   16:20   92.0    10    3.8   272      6.9   866.4    0.00     372    99.1
 209   16:30   92.0    10    1.9   294      4.3   866.3    0.00     345    99.4
 209   16:40   92.6    11    1.4   255      4.5   866.3    0.00     320    99.7
 209   16:50   91.9    10    4.6   256     12.3   866.3    0.00     294    99.9
 209   17:00   91.4    10    3.6   318      9.1   866.2    0.00     267    100.0
 209   17:10   91.3    10    2.0   330      5.3   866.2    0.00     239    100.1
 209   17:20   91.3    11    2.7   255      6.4   866.1    0.00     213    100.2
 209   17:30   91.5    10    3.7   282      7.5   866.1    0.00     188    100.3
 209   17:40   91.3    11    3.8   267      8.0   866.1    0.00     162    100.3
 209   17:50   91.4    11    2.7   257      4.5   866.2    0.00     137    100.3
 209   18:00   91.8    11    1.6   271      3.1   866.3    0.00     114    100.2
 209   18:10   88.8    15    0.9   147      1.5   866.3    0.00      91    100.1
 209   18:20   87.6    16    0.5   225      2.6   866.4    0.00      65    100.0
 209   18:30   86.1    19    0.3   118      2.0   866.4    0.00      35    99.8
 209   18:40   84.1    22    0.4   142      1.2   866.5    0.00      10    99.6
 209   18:50   81.7    24    0.2   135      1.0   866.5    0.00       7    99.2
 209   19:00   80.4    23    1.0   107      3.4   866.6    0.00       3    98.8
 209   19:10   81.1    18    1.4    93      3.4   866.7    0.00       1    98.4
 209   19:20   80.7    18    1.3    99      3.1   866.8    0.00       0    97.9

Return to Caliente, Nevada graphs page.


Western Regional Climate Center,wrcc@dri.edu